Time;durP1;ratioP1;P1;durP2;ratioP2;P2;SDS_P1;SDS_P2;PMS_P1;PMS_P2;Temp;Humidity;BMP_temperature;BMP_pressure;BME280_temperature;BME280_humidity;BME280_pressure;Samples;Min_cycle;Max_cycle;Signal;HPM_P1;HPM_P2
2022/05/02 00:04:37;;;;;;;6.60;4.28;;;9.00;99.90;;;;;;12375532;28;20046;-38
2022/05/02 00:10:45;;;;;;;7.55;4.22;;;9.20;99.90;;;;;;12372593;28;20168;-36
2022/05/02 00:16:47;;;;;;;5.88;4.07;;;9.10;99.90;;;;;;12379196;28;20051;-37
2022/05/02 00:22:50;;;;;;;6.88;3.75;;;9.00;99.90;;;;;;12378455;28;20140;-37
2022/05/02 00:28:51;;;;;;;9.50;4.05;;;8.90;99.90;;;;;;12374149;28;20538;-37
2022/05/02 00:34:53;;;;;;;7.30;3.97;;;8.90;99.90;;;;;;12372828;28;20046;-37
2022/05/02 00:40:56;;;;;;;7.28;3.88;;;8.80;99.90;;;;;;12376254;28;20595;-36
2022/05/02 00:46:58;;;;;;;5.07;3.72;;;8.80;99.90;;;;;;12374680;28;20158;-37
2022/05/02 00:53:06;;;;;;;6.68;3.50;;;8.90;99.90;;;;;;12380260;28;20058;-38
2022/05/02 00:59:11;;;;;;;9.55;4.32;;;8.90;99.90;;;;;;12381530;28;20086;-38
2022/05/02 01:05:13;;;;;;;8.25;4.40;;;8.80;99.90;;;;;;12379293;28;20077;-37
2022/05/02 01:11:15;;;;;;;7.40;3.80;;;8.80;99.90;;;;;;12379994;28;20046;-36
2022/05/02 01:17:18;;;;;;;8.60;4.05;;;8.80;99.90;;;;;;12379954;28;20505;-39
2022/05/02 01:23:20;;;;;;;8.65;5.00;;;8.80;99.90;;;;;;12377065;28;20055;-36
2022/05/02 01:29:22;;;;;;;6.88;3.90;;;9.10;99.90;;;;;;12383195;28;20089;-36
2022/05/02 01:35:24;;;;;;;7.78;4.03;;;8.80;99.90;;;;;;12383902;28;20522;-36
2022/05/02 01:41:26;;;;;;;8.63;4.15;;;8.80;99.90;;;;;;12379536;28;20060;-37
2022/05/02 01:47:28;;;;;;;10.35;4.18;;;8.80;99.90;;;;;;12375181;28;20510;-37
2022/05/02 01:53:31;;;;;;;5.93;3.55;;;8.90;99.90;;;;;;12377416;28;20050;-37
2022/05/02 01:59:33;;;;;;;5.05;3.83;;;8.90;99.90;;;;;;12375879;28;20074;-36
2022/05/02 02:05:48;;;;;;;7.18;3.85;;;8.80;99.90;;;;;;12372334;28;20278;-38
2022/05/02 02:11:51;;;;;;;10.93;3.70;;;8.60;99.90;;;;;;12376568;28;20573;-38
2022/05/02 02:17:53;;;;;;;7.15;3.33;;;8.70;99.90;;;;;;12379257;28;20301;-36
2022/05/02 02:23:55;;;;;;;6.22;3.65;;;8.70;99.90;;;;;;12377618;28;20137;-36
2022/05/02 02:29:58;;;;;;;4.90;3.33;;;8.90;99.90;;;;;;12373547;28;20145;-37
2022/05/02 02:35:59;;;;;;;8.10;3.58;;;8.90;99.90;;;;;;12368866;28;20145;-37
2022/05/02 02:42:01;;;;;;;6.95;4.47;;;8.80;99.90;;;;;;12367339;28;20609;-36
2022/05/02 02:48:04;;;;;;;5.70;3.38;;;8.90;99.90;;;;;;12369459;28;20513;-37
2022/05/02 02:54:06;;;;;;;7.05;3.67;;;8.70;99.90;;;;;;12369512;28;20058;-36
2022/05/02 03:00:09;;;;;;;6.80;3.63;;;8.90;99.90;;;;;;12368770;28;20077;-38
2022/05/02 03:06:11;;;;;;;5.40;3.20;;;8.90;99.90;;;;;;12371663;28;20053;-36
2022/05/02 03:12:13;;;;;;;5.97;3.35;;;8.90;99.90;;;;;;12373670;28;20578;-36
2022/05/02 03:18:15;;;;;;;6.88;3.67;;;8.70;99.90;;;;;;12373979;28;20133;-36
2022/05/02 03:24:18;;;;;;;7.68;3.80;;;8.60;99.90;;;;;;12376555;28;20162;-36
2022/05/02 03:30:20;;;;;;;8.82;3.63;;;8.70;99.90;;;;;;12376940;28;20084;-35
2022/05/02 03:36:27;;;;;;;5.55;3.50;;;8.50;99.90;;;;;;12377098;28;20100;-38
2022/05/02 03:42:29;;;;;;;6.45;3.15;;;8.50;99.90;;;;;;12373473;28;20058;-37
2022/05/02 03:48:31;;;;;;;6.13;3.63;;;8.60;99.90;;;;;;12377566;28;20059;-37
2022/05/02 03:54:33;;;;;;;8.00;4.75;;;8.70;99.90;;;;;;12383690;28;20046;-38
2022/05/02 04:00:35;;;;;;;8.27;4.22;;;8.50;99.90;;;;;;12384954;28;20051;-36
2022/05/02 04:06:37;;;;;;;5.53;4.00;;;8.10;99.90;;;;;;12382692;28;20141;-36
2022/05/02 04:12:42;;;;;;;7.43;4.28;;;8.20;99.90;;;;;;12380253;28;20857;-39
2022/05/02 04:18:45;;;;;;;9.90;4.00;;;8.10;99.90;;;;;;12383403;28;20058;-37
2022/05/02 04:24:47;;;;;;;6.45;3.90;;;8.10;99.90;;;;;;12384444;28;20651;-38
2022/05/02 04:30:50;;;;;;;7.53;4.72;;;8.10;99.90;;;;;;12375344;28;21500;-36
2022/05/02 04:36:52;;;;;;;8.77;4.18;;;8.10;99.90;;;;;;12377283;28;20069;-36
2022/05/02 04:42:54;;;;;;;5.20;3.95;;;8.20;99.90;;;;;;12379185;28;20375;-37
2022/05/02 04:48:56;;;;;;;7.47;4.95;;;8.20;99.90;;;;;;12375219;28;20050;-38
2022/05/02 04:54:58;;;;;;;7.57;4.85;;;8.30;99.90;;;;;;12370170;28;20086;-39
2022/05/02 05:01:00;;;;;;;10.57;4.95;;;8.20;99.90;;;;;;12371893;28;20513;-37
2022/05/02 05:07:02;;;;;;;7.80;4.78;;;8.30;99.90;;;;;;12370648;28;20053;-38
2022/05/02 05:13:08;;;;;;;7.40;4.90;;;8.40;99.90;;;;;;12383225;28;20583;-37
2022/05/02 05:20:00;;;;;;;6.70;4.60;;;8.60;99.90;;;;;;12375212;28;20137;-36
2022/05/02 05:26:28;;;;;;;6.20;4.50;;;8.60;99.90;;;;;;12350705;28;20069;-38
2022/05/02 05:33:11;;;;;;;9.98;5.57;;;8.60;99.90;;;;;;12383650;28;20122;-37
2022/05/02 05:39:42;;;;;;;7.20;5.20;;;8.70;99.90;;;;;;12370615;28;20141;-36
2022/05/02 05:46:31;;;;;;;8.45;5.20;;;8.70;99.90;;;;;;12370548;28;20280;-38
2022/05/02 05:52:58;;;;;;;9.65;4.95;;;8.90;99.90;;;;;;12374740;28;20054;-37
2022/05/02 05:59:10;;;;;;;7.25;4.95;;;9.20;99.90;;;;;;12376710;28;20109;-36
2022/05/02 06:05:14;;;;;;;9.52;5.50;;;9.80;99.90;;;;;;12376672;28;20082;-36
2022/05/02 06:11:19;;;;;;;6.97;5.10;;;10.10;99.90;;;;;;12373642;28;20173;-36
2022/05/02 06:23:52;;;;;;;7.88;4.45;;;10.40;99.90;;;;;;12376581;28;20077;-38
2022/05/02 06:29:54;;;;;;;12.10;4.68;;;10.40;99.90;;;;;;12371161;28;20050;-36
2022/05/02 06:36:35;;;;;;;10.95;4.60;;;10.50;99.90;;;;;;12368092;28;20077;-36
2022/05/02 06:43:15;;;;;;;10.40;4.60;;;10.90;99.90;;;;;;12362558;28;20955;-38
2022/05/02 06:49:17;;;;;;;10.20;5.07;;;10.80;99.90;;;;;;12373051;28;20598;-38
2022/05/02 06:55:36;;;;;;;8.85;4.63;;;10.70;99.90;;;;;;12364404;28;20077;-37
2022/05/02 07:01:44;;;;;;;9.60;5.28;;;10.70;99.90;;;;;;12366798;28;20435;-36
2022/05/02 07:08:04;;;;;;;10.90;5.15;;;10.80;99.90;;;;;;12370808;28;20100;-38
2022/05/02 07:14:28;;;;;;;7.15;5.10;;;11.00;99.90;;;;;;12374885;28;20055;-37
2022/05/02 07:20:50;;;;;;;9.67;5.60;;;11.10;99.90;;;;;;12377731;28;20081;-36
2022/05/02 07:27:21;;;;;;;9.88;5.47;;;11.40;99.90;;;;;;12384161;28;20108;-36
2022/05/02 07:33:32;;;;;;;9.35;6.25;;;11.50;99.90;;;;;;12382753;28;20127;-39
2022/05/02 07:39:38;;;;;;;11.82;5.82;;;11.30;99.90;;;;;;12383283;28;20576;-39
2022/05/02 07:45:41;;;;;;;10.05;5.78;;;11.40;99.90;;;;;;12383085;28;20577;-38
2022/05/02 07:51:47;;;;;;;12.73;6.05;;;11.40;99.90;;;;;;12387390;28;20506;-38
2022/05/02 07:57:50;;;;;;;9.20;5.22;;;11.50;99.90;;;;;;12386261;28;20054;-39
2022/05/02 08:03:53;;;;;;;9.17;5.20;;;11.70;99.90;;;;;;12386055;28;20058;-37
2022/05/02 08:10:22;;;;;;;9.95;6.25;;;11.90;99.90;;;;;;12386324;28;20494;-38
2022/05/02 08:16:25;;;;;;;10.75;5.40;;;12.30;99.90;;;;;;12387302;28;20081;-37
2022/05/02 08:29:40;;;;;;;8.90;5.05;;;13.10;99.90;;;;;;12384774;28;20054;-37
2022/05/02 08:36:03;;;;;;;9.43;5.47;;;13.40;99.90;;;;;;12378552;28;20344;-36
2022/05/02 08:42:23;;;;;;;7.53;4.95;;;13.70;99.90;;;;;;12378208;28;20059;-38
2022/05/02 08:48:44;;;;;;;9.27;4.82;;;13.70;99.90;;;;;;12401496;23;20486;-82
2022/05/02 08:55:20;;;;;;;8.75;5.05;;;14.00;99.90;;;;;;12394498;28;20049;-82
2022/05/02 09:02:06;;;;;;;11.75;5.28;;;14.10;99.90;;;;;;12391327;28;20050;-80
2022/05/02 09:08:14;;;;;;;10.30;5.03;;;14.40;99.90;;;;;;12379729;28;20049;-82
2022/05/02 09:14:37;;;;;;;9.00;5.38;;;14.30;99.90;;;;;;12392847;28;20107;-82
2022/05/02 09:20:58;;;;;;;11.07;5.28;;;14.20;99.90;;;;;;12392250;28;20089;-82
2022/05/02 09:27:12;;;;;;;9.27;5.65;;;14.60;99.90;;;;;;12384690;28;20081;-80
2022/05/02 09:33:29;;;;;;;13.55;5.47;;;15.30;99.90;;;;;;12390201;28;20486;-82
2022/05/02 09:40:02;;;;;;;8.88;4.93;;;15.30;99.90;;;;;;12399953;28;20128;-80
2022/05/02 09:53:17;;;;;;;8.38;5.22;;;15.70;99.90;;;;;;12388141;28;20157;-79
2022/05/02 09:59:24;;;;;;;12.75;5.72;;;15.90;99.90;;;;;;12383305;28;20424;-80
2022/05/02 10:05:36;;;;;;;11.43;5.28;;;16.00;99.90;;;;;;12377608;28;20169;-83
2022/05/02 10:12:01;;;;;;;10.25;5.80;;;16.30;99.90;;;;;;12367940;28;20090;-80
2022/05/02 10:18:16;;;;;;;14.10;5.28;;;16.60;99.90;;;;;;12389999;28;20058;-82
2022/05/02 10:24:24;;;;;;;8.07;5.28;;;17.00;99.90;;;;;;12382237;28;20046;-80
2022/05/02 10:30:53;;;;;;;9.18;5.07;;;17.10;99.90;;;;;;12387761;28;20054;-80
2022/05/02 10:36:56;;;;;;;11.30;5.28;;;17.20;99.90;;;;;;12391565;28;20599;-80
2022/05/02 10:43:02;;;;;;;9.50;5.00;;;17.40;99.90;;;;;;12392182;28;20050;-80
2022/05/02 10:49:27;;;;;;;8.48;4.90;;;17.20;99.90;;;;;;12403063;28;20747;-80
2022/05/02 10:55:37;;;;;;;9.00;5.15;;;17.70;99.90;;;;;;12396388;28;20041;-82
2022/05/02 11:01:41;;;;;;;7.43;5.13;;;17.80;99.90;;;;;;12391306;28;20058;-80
2022/05/02 11:08:02;;;;;;;6.30;5.05;;;18.10;99.90;;;;;;12395544;28;20117;-81
2022/05/02 11:14:18;;;;;;;6.18;5.00;;;17.90;99.90;;;;;;12398984;28;20065;-83
2022/05/02 11:20:45;;;;;;;6.82;5.03;;;18.40;99.90;;;;;;12396936;28;20046;-83
2022/05/02 11:27:12;;;;;;;10.77;5.68;;;18.00;99.90;;;;;;12399145;28;20050;-81
2022/05/02 11:33:32;;;;;;;9.55;6.13;;;18.40;99.90;;;;;;12414696;28;20037;-83
2022/05/02 11:39:59;;;;;;;6.88;4.85;;;18.60;99.90;;;;;;12394894;28;20081;-83
2022/05/02 11:46:18;;;;;;;10.30;5.85;;;18.70;99.90;;;;;;12390349;28;20096;-81
2022/05/02 11:52:36;;;;;;;8.43;5.80;;;18.70;99.90;;;;;;12388739;28;20589;-81
2022/05/02 11:58:48;;;;;;;9.15;5.18;;;18.70;99.90;;;;;;12394929;28;20058;-81
2022/05/02 12:04:52;;;;;;;7.45;5.28;;;18.90;99.90;;;;;;12386386;28;20045;-80
2022/05/02 12:11:08;;;;;;;8.60;4.60;;;19.30;99.90;;;;;;12395611;28;20156;-81
2022/05/02 12:17:11;;;;;;;8.35;5.18;;;19.90;99.90;;;;;;12399145;28;20046;-84
2022/05/02 12:23:18;;;;;;;8.63;5.20;;;19.50;99.90;;;;;;12407147;28;20056;-81
2022/05/02 12:29:21;;;;;;;10.32;6.03;;;19.60;99.90;;;;;;12396627;28;20137;-83
2022/05/02 12:35:24;;;;;;;9.23;5.47;;;19.00;99.90;;;;;;12395687;28;20341;-81
2022/05/02 12:41:28;;;;;;;12.87;5.53;;;19.30;99.90;;;;;;12395711;28;20054;-81
2022/05/02 12:47:40;;;;;;;9.57;5.70;;;19.80;99.90;;;;;;12396704;28;20126;-83
2022/05/02 13:06:26;;;;;;;8.60;5.35;;;19.50;99.90;;;;;;12398758;28;20912;-81
2022/05/02 13:12:28;;;;;;;7.50;5.25;;;19.30;99.90;;;;;;12402919;28;20076;-83
2022/05/02 13:18:30;;;;;;;9.10;5.40;;;18.80;99.90;;;;;;12398235;28;20134;-83
2022/05/02 13:24:50;;;;;;;10.38;5.45;;;18.10;99.90;;;;;;12396569;28;20081;-82
2022/05/02 13:30:58;;;;;;;7.13;5.65;;;17.60;99.90;;;;;;12405028;28;20091;-81
2022/05/02 13:37:15;;;;;;;10.95;6.18;;;17.40;99.90;;;;;;12391415;28;20053;-81
2022/05/02 13:43:37;;;;;;;7.85;5.72;;;17.20;99.90;;;;;;12394110;28;20133;-83
2022/05/02 13:50:00;;;;;;;9.20;5.85;;;17.10;99.90;;;;;;12391263;28;20115;-83
2022/05/02 13:56:10;;;;;;;9.25;5.55;;;17.10;99.90;;;;;;12399916;28;20100;-83
2022/05/02 14:02:35;;;;;;;9.95;5.60;;;17.20;99.90;;;;;;12393940;28;20046;-83
2022/05/02 14:08:39;;;;;;;8.73;5.10;;;17.50;99.90;;;;;;12400130;28;20181;-83
2022/05/02 14:14:58;;;;;;;6.53;4.65;;;18.10;99.90;;;;;;12388275;28;20125;-81
2022/05/02 14:21:00;;;;;;;8.95;5.80;;;18.30;99.90;;;;;;12399643;28;20136;-81
2022/05/02 14:27:03;;;;;;;8.98;5.53;;;18.30;99.90;;;;;;12395761;28;20050;-83
2022/05/02 14:33:11;;;;;;;11.48;5.53;;;18.80;99.90;;;;;;12386947;28;20502;-84
2022/05/02 14:39:14;;;;;;;5.68;4.20;;;19.10;99.90;;;;;;12395569;28;20176;-83
2022/05/02 14:45:18;;;;;;;11.00;5.32;;;19.30;99.90;;;;;;12389173;28;20116;-84
2022/05/02 14:51:25;;;;;;;14.20;4.93;;;19.10;99.90;;;;;;12398632;28;20057;-83
2022/05/02 14:57:29;;;;;;;7.47;5.03;;;18.60;99.90;;;;;;12374845;28;20457;-83
2022/05/02 15:03:38;;;;;;;8.30;5.32;;;18.30;99.90;;;;;;12401153;28;20047;-82
2022/05/02 15:10:15;;;;;;;8.90;5.30;;;17.60;99.90;;;;;;12393745;28;20088;-83
2022/05/02 15:16:38;;;;;;;9.10;5.30;;;17.40;99.90;;;;;;12399643;28;20050;-83
2022/05/02 15:22:52;;;;;;;7.43;4.43;;;17.40;99.90;;;;;;12387681;28;20181;-80
2022/05/02 15:42:03;;;;;;;;;;;18.00;99.90;;;;;;12388332;28;20051;-83
2022/05/02 15:48:42;;;;;;;9.80;4.47;;;18.30;99.90;;;;;;12393297;28;20401;-82
2022/05/02 15:55:07;;;;;;;7.00;4.53;;;18.50;99.90;;;;;;12396646;28;20100;-81
2022/05/02 16:01:20;;;;;;;9.52;5.75;;;18.60;99.90;;;;;;12396855;28;20053;-81
2022/05/02 16:14:04;;;;;;;7.20;5.13;;;18.00;99.90;;;;;;12397842;28;20121;-81
2022/05/02 16:20:11;;;;;;;9.65;5.43;;;18.10;99.90;;;;;;12394711;28;20085;-81
2022/05/02 16:26:14;;;;;;;8.82;4.47;;;18.30;99.90;;;;;;12400613;28;20050;-84
2022/05/02 16:32:15;;;;;;;9.13;4.70;;;18.50;99.90;;;;;;12398884;28;20418;-81
2022/05/02 16:38:37;;;;;;;9.75;4.85;;;18.90;99.90;;;;;;12397885;28;20046;-81
2022/05/02 16:44:40;;;;;;;7.75;5.18;;;18.60;99.90;;;;;;12401389;28;20176;-81
2022/05/02 16:50:42;;;;;;;6.90;4.67;;;18.30;99.90;;;;;;12394666;28;20061;-83
2022/05/02 16:56:46;;;;;;;10.55;5.40;;;18.40;99.90;;;;;;12392925;28;20053;-81
2022/05/02 17:02:50;;;;;;;8.50;4.55;;;18.30;99.90;;;;;;12393006;28;20132;-83
2022/05/02 17:08:53;;;;;;;8.48;4.93;;;18.00;99.90;;;;;;12389859;28;20133;-81
2022/05/02 17:14:56;;;;;;;9.90;5.30;;;18.10;99.90;;;;;;12393741;28;20529;-81
2022/05/02 17:21:00;;;;;;;12.07;5.43;;;18.40;99.90;;;;;;12391042;28;20052;-81
2022/05/02 17:27:05;;;;;;;7.97;4.95;;;18.00;99.90;;;;;;12392167;28;20133;-83
2022/05/02 17:33:09;;;;;;;8.10;4.80;;;17.40;99.90;;;;;;12389745;28;20175;-81
2022/05/02 17:39:23;;;;;;;7.55;5.40;;;16.90;99.90;;;;;;12394456;28;20423;-83
2022/05/02 17:45:42;;;;;;;10.00;5.20;;;16.70;99.90;;;;;;12388118;28;20384;-83
2022/05/02 17:51:53;;;;;;;9.15;5.60;;;16.40;99.90;;;;;;12390328;28;20058;-83
2022/05/02 17:58:09;;;;;;;8.38;5.10;;;16.40;99.90;;;;;;12392879;28;20047;-80
2022/05/02 18:04:15;;;;;;;9.32;5.45;;;16.20;99.90;;;;;;12393847;28;21082;-81
2022/05/02 18:10:21;;;;;;;7.32;5.07;;;16.10;99.90;;;;;;12396760;28;20070;-80
2022/05/02 18:16:40;;;;;;;10.10;5.70;;;16.00;99.90;;;;;;12390138;28;20112;-80
2022/05/02 18:22:53;;;;;;;8.57;5.85;;;16.20;99.90;;;;;;12401094;28;20104;-82
2022/05/02 18:28:55;;;;;;;8.98;5.00;;;15.80;99.90;;;;;;12394735;28;20057;-83
2022/05/02 18:41:30;;;;;;;9.68;5.03;;;15.60;99.90;;;;;;12377671;28;20510;-79
2022/05/02 18:53:55;;;;;;;6.60;4.80;;;15.30;99.90;;;;;;12389124;28;20045;-80
2022/05/02 19:00:10;;;;;;;12.95;5.35;;;15.10;99.90;;;;;;12383254;28;20054;-79
2022/05/02 19:06:17;;;;;;;10.40;5.38;;;14.90;99.90;;;;;;12362538;28;20054;-82
2022/05/02 19:12:21;;;;;;;7.60;4.90;;;14.80;99.90;;;;;;12369073;28;20057;-83
2022/05/02 19:18:23;;;;;;;;;;;14.80;99.90;;;;;;12397948;28;20554;-80
2022/05/02 19:25:03;;;;;;;8.68;5.47;;;14.80;99.90;;;;;;12389165;28;19937;-80
2022/05/02 19:31:16;;;;;;;21.90;12.80;;;14.60;99.90;;;;;;12389227;28;20112;-82
2022/05/02 19:44:09;;;;;;;15.23;8.75;;;14.50;99.90;;;;;;12386742;28;20888;-82
2022/05/02 19:50:12;;;;;;;11.95;6.65;;;14.30;99.90;;;;;;12393639;28;20958;-81
2022/05/02 19:56:15;;;;;;;11.40;6.53;;;13.90;99.90;;;;;;12387697;28;20167;-81
2022/05/02 20:02:18;;;;;;;13.40;6.10;;;13.60;99.90;;;;;;12385541;28;20042;-82
2022/05/02 20:08:20;;;;;;;9.75;5.95;;;13.50;99.90;;;;;;12392169;28;20133;-83
2022/05/02 20:14:22;;;;;;;9.73;5.72;;;13.30;99.90;;;;;;12390131;28;20046;-82
2022/05/02 20:20:24;;;;;;;7.82;6.00;;;13.10;99.90;;;;;;12382789;28;20552;-80
2022/05/02 20:26:26;;;;;;;9.82;5.32;;;13.10;99.90;;;;;;12390840;28;20109;-82
2022/05/02 20:38:49;;;;;;;8.00;5.10;;;13.00;99.90;;;;;;12393815;28;20095;-80
2022/05/02 20:45:07;;;;;;;8.15;4.45;;;12.70;99.90;;;;;;12407836;28;20134;-80
2022/05/02 20:51:10;;;;;;;5.90;4.68;;;12.70;99.90;;;;;;12432620;28;20085;-83
2022/05/02 20:57:14;;;;;;;9.38;4.55;;;12.60;99.90;;;;;;12419737;28;20046;-81
2022/05/02 21:03:16;;;;;;;7.38;4.20;;;12.40;99.90;;;;;;12403654;28;20089;-82
2022/05/02 21:09:18;;;;;;;6.10;4.07;;;12.20;99.90;;;;;;12404419;28;20054;-82
2022/05/02 21:15:23;;;;;;;8.68;4.40;;;12.00;99.90;;;;;;12398302;28;20387;-80
2022/05/02 21:21:51;;;;;;;7.13;4.28;;;12.00;99.90;;;;;;12399163;28;20050;-79
2022/05/02 21:28:05;;;;;;;5.10;4.00;;;12.10;99.90;;;;;;12393138;28;20085;-80
2022/05/02 21:34:38;;;;;;;7.63;4.10;;;12.10;99.90;;;;;;12391706;28;20485;-79
2022/05/02 21:40:41;;;;;;;9.02;4.25;;;12.00;99.90;;;;;;12392839;28;20046;-80
2022/05/02 21:46:43;;;;;;;5.05;3.40;;;12.00;99.90;;;;;;12414491;28;20092;-81
2022/05/02 21:52:45;;;;;;;4.55;3.20;;;11.90;99.90;;;;;;12427674;28;20131;-81
2022/05/02 21:58:46;;;;;;;4.93;3.40;;;12.00;99.90;;;;;;12441079;28;20058;-82
2022/05/02 22:04:48;;;;;;;5.30;2.92;;;11.90;99.90;;;;;;12406581;28;20161;-80
2022/05/02 22:10:51;;;;;;;4.50;2.50;;;11.80;99.90;;;;;;12403722;28;20074;-81
2022/05/02 22:16:53;;;;;;;5.47;2.78;;;11.80;99.90;;;;;;12394009;28;20049;-79
2022/05/02 22:22:55;;;;;;;5.60;2.63;;;11.70;99.90;;;;;;12410042;28;20141;-82
2022/05/02 22:28:57;;;;;;;7.22;2.70;;;11.40;99.90;;;;;;12426434;28;20128;-82
2022/05/02 22:34:59;;;;;;;6.47;2.38;;;11.50;99.90;;;;;;12406156;28;20151;-79
2022/05/02 22:41:00;;;;;;;6.35;2.90;;;11.60;99.90;;;;;;12395639;28;23904;-81
2022/05/02 22:47:03;;;;;;;7.75;2.97;;;11.60;99.90;;;;;;12390578;28;20188;-81
2022/05/02 22:53:05;;;;;;;4.40;2.75;;;11.40;99.90;;;;;;12406443;28;20034;-81
2022/05/02 22:59:08;;;;;;;6.13;2.60;;;11.30;99.90;;;;;;12396915;28;20136;-81
2022/05/02 23:05:31;;;;;;;5.63;2.80;;;11.20;99.90;;;;;;12392626;28;20111;-82
2022/05/02 23:11:34;;;;;;;6.70;3.35;;;11.00;99.90;;;;;;12394209;28;20053;-81
2022/05/02 23:17:38;;;;;;;10.95;3.10;;;10.80;99.90;;;;;;12400183;28;20140;-81
2022/05/02 23:23:41;;;;;;;5.22;3.20;;;10.80;99.90;;;;;;12387041;28;20539;-79
2022/05/02 23:29:42;;;;;;;4.47;2.85;;;10.50;99.90;;;;;;12394271;28;20466;-81
2022/05/02 23:35:46;;;;;;;5.03;3.05;;;10.50;99.90;;;;;;12396735;28;20093;-82
2022/05/02 23:41:58;;;;;;;7.85;3.35;;;10.30;99.90;;;;;;12395549;28;20521;-81
2022/05/02 23:48:27;;;;;;;4.93;2.80;;;10.30;99.90;;;;;;12387791;28;20057;-79
2022/05/02 23:54:56;;;;;;;5.47;3.22;;;10.10;99.90;;;;;;12387066;28;20524;-82
